Time;durP1;ratioP1;P1;durP2;ratioP2;P2;SDS_P1;SDS_P2;PMS_P1;PMS_P2;Temp;Humidity;BMP_temperature;BMP_pressure;BME280_temperature;BME280_humidity;BME280_pressure;Samples;Min_cycle;Max_cycle;Signal;HPM_P1;HPM_P2
2022/05/30 00:00:41;;;;;;;1999.90;999.90;;;10.50;99.90;;;;;;5073305;28;20466;-65
2022/05/30 00:03:10;;;;;;;1999.90;999.90;;;10.40;99.90;;;;;;5071093;28;20489;-70
2022/05/30 00:05:37;;;;;;;1999.90;999.90;;;10.30;99.90;;;;;;5069549;28;20469;-67
2022/05/30 00:08:05;;;;;;;1999.90;999.90;;;10.30;99.90;;;;;;5071321;28;20887;-67
2022/05/30 00:10:31;;;;;;;1999.90;999.90;;;10.30;99.90;;;;;;5068996;28;20469;-67
2022/05/30 00:12:58;;;;;;;1999.90;999.90;;;10.40;99.90;;;;;;5068638;28;20534;-67
2022/05/30 00:15:25;;;;;;;1999.90;999.90;;;10.40;99.90;;;;;;5069329;28;20465;-68
2022/05/30 00:17:55;;;;;;;1999.90;999.90;;;10.40;99.90;;;;;;5068104;28;20473;-68
2022/05/30 00:20:24;;;;;;;1999.90;999.90;;;10.40;99.90;;;;;;5070919;28;20472;-67
2022/05/30 00:22:51;;;;;;;1999.90;999.90;;;10.20;99.90;;;;;;5069711;28;20534;-67
2022/05/30 00:25:19;;;;;;;1999.90;999.90;;;10.20;99.90;;;;;;5069005;28;20469;-67
2022/05/30 00:27:46;;;;;;;1999.90;999.90;;;10.20;99.90;;;;;;5067902;28;20461;-67
2022/05/30 00:30:14;;;;;;;1999.90;999.90;;;10.10;99.90;;;;;;5062349;28;20530;-68
2022/05/30 00:32:41;;;;;;;1999.90;999.90;;;10.20;99.90;;;;;;5062994;28;20472;-66
2022/05/30 00:35:09;;;;;;;1999.90;999.90;;;10.20;99.90;;;;;;5070095;28;20469;-67
2022/05/30 00:37:37;;;;;;;1999.90;999.90;;;10.40;99.90;;;;;;5068298;28;20461;-68
2022/05/30 00:40:05;;;;;;;1999.90;999.90;;;10.30;99.90;;;;;;5069277;28;20518;-67
2022/05/30 00:42:33;;;;;;;1999.90;999.90;;;10.40;99.90;;;;;;5068062;28;20898;-67
2022/05/30 00:45:00;;;;;;;1999.90;999.90;;;10.50;99.90;;;;;;5068623;28;20969;-71
2022/05/30 00:47:27;;;;;;;1999.90;999.90;;;10.40;99.90;;;;;;5069275;28;20466;-68
2022/05/30 00:49:56;;;;;;;1999.90;999.90;;;10.40;99.90;;;;;;5068392;28;21159;-68
2022/05/30 00:52:27;;;;;;;1999.90;999.90;;;10.30;99.90;;;;;;5066988;28;20473;-68
2022/05/30 00:54:59;;;;;;;1999.90;999.90;;;10.30;99.90;;;;;;5066829;28;20903;-68
2022/05/30 00:57:28;;;;;;;1999.90;999.90;;;10.30;99.90;;;;;;5068550;28;20501;-69
2022/05/30 00:59:57;;;;;;;1999.90;999.90;;;10.30;99.90;;;;;;5066683;28;20468;-68
2022/05/30 01:02:27;;;;;;;1999.90;999.90;;;10.40;99.90;;;;;;5068845;28;20493;-69
2022/05/30 01:07:40;;;;;;;1999.90;999.90;;;10.30;99.90;;;;;;5069738;28;20525;-70
2022/05/30 01:10:11;;;;;;;1999.90;999.90;;;10.10;99.90;;;;;;5064616;28;20537;-68
2022/05/30 01:12:43;;;;;;;1999.90;999.90;;;10.20;99.90;;;;;;5070157;28;20848;-67
2022/05/30 01:15:13;;;;;;;1999.90;999.90;;;10.20;99.90;;;;;;5066748;28;20560;-67
2022/05/30 01:17:52;;;;;;;1999.90;999.90;;;10.20;99.90;;;;;;5069261;28;20476;-68
2022/05/30 01:20:30;;;;;;;1999.90;999.90;;;10.20;99.90;;;;;;5068512;28;20976;-65
2022/05/30 01:23:11;;;;;;;1999.90;999.90;;;10.20;99.90;;;;;;5065999;28;20535;-67
2022/05/30 01:26:06;;;;;;;1999.90;999.90;;;10.20;99.90;;;;;;5068345;28;20459;-67
2022/05/30 01:28:42;;;;;;;1999.90;999.90;;;10.10;99.90;;;;;;5068206;28;20886;-69
2022/05/30 01:31:10;;;;;;;1999.90;999.90;;;10.10;99.90;;;;;;5068946;28;20897;-67
2022/05/30 01:33:37;;;;;;;1999.90;999.90;;;10.10;99.90;;;;;;5066172;28;20477;-69
2022/05/30 01:36:04;;;;;;;1999.90;999.90;;;10.10;99.90;;;;;;5067038;28;20461;-71
2022/05/30 01:38:31;;;;;;;1999.90;999.90;;;10.10;99.90;;;;;;5070635;28;20473;-69
2022/05/30 01:40:59;;;;;;;1999.90;999.90;;;10.10;99.90;;;;;;5068570;28;20858;-68
2022/05/30 01:43:26;;;;;;;1999.90;999.90;;;10.10;99.90;;;;;;5067256;28;20491;-68
2022/05/30 01:45:54;;;;;;;1999.90;999.90;;;10.10;99.90;;;;;;5067561;28;20461;-71
2022/05/30 01:48:21;;;;;;;1999.90;999.90;;;10.20;99.90;;;;;;5068170;28;20531;-68
2022/05/30 01:50:48;;;;;;;1999.90;999.90;;;10.20;99.90;;;;;;5068824;28;20457;-67
2022/05/30 01:53:15;;;;;;;1999.90;999.90;;;10.20;99.90;;;;;;5065381;28;20519;-67
2022/05/30 01:55:41;;;;;;;1999.90;999.90;;;10.20;99.90;;;;;;5070681;28;20499;-68
2022/05/30 01:58:08;;;;;;;1999.90;999.90;;;10.10;99.90;;;;;;5068189;28;20484;-66
2022/05/30 02:00:36;;;;;;;1999.90;999.90;;;10.10;99.90;;;;;;5067584;28;20879;-68
2022/05/30 02:03:05;;;;;;;1999.90;999.90;;;10.10;99.90;;;;;;5065902;28;20525;-66
2022/05/30 02:05:33;;;;;;;1999.90;999.90;;;10.10;99.90;;;;;;5063217;28;20945;-69
2022/05/30 02:08:01;;;;;;;1999.90;999.90;;;10.10;99.90;;;;;;5066245;28;20491;-68
2022/05/30 02:10:28;;;;;;;1999.90;999.90;;;10.00;99.90;;;;;;5070666;28;20463;-68
2022/05/30 02:12:55;;;;;;;1999.90;999.90;;;10.10;99.90;;;;;;5062127;28;20527;-69
2022/05/30 02:15:22;;;;;;;1999.90;999.90;;;10.00;99.90;;;;;;5070796;28;20454;-68
2022/05/30 02:17:48;;;;;;;1999.90;999.90;;;10.10;99.90;;;;;;5071455;28;20975;-66
2022/05/30 02:20:16;;;;;;;1999.90;999.90;;;10.00;99.90;;;;;;5066002;28;20450;-68
2022/05/30 02:22:44;;;;;;;1999.90;999.90;;;10.10;99.90;;;;;;5068758;28;20227;-68
2022/05/30 02:25:12;;;;;;;1999.90;999.90;;;10.10;99.90;;;;;;5067751;28;20606;-67
2022/05/30 02:27:38;;;;;;;1999.90;999.90;;;10.10;99.90;;;;;;5068123;28;22361;-69
2022/05/30 02:30:06;;;;;;;1999.90;999.90;;;10.10;99.90;;;;;;5067891;28;20475;-67
2022/05/30 02:32:33;;;;;;;1999.90;999.90;;;10.10;99.90;;;;;;5067365;28;21013;-68
2022/05/30 02:37:45;;;;;;;1999.90;999.90;;;10.10;99.90;;;;;;5072983;28;20494;-71
2022/05/30 02:40:12;;;;;;;1999.90;999.90;;;10.00;99.90;;;;;;5070577;28;20465;-68
2022/05/30 02:42:40;;;;;;;1999.90;999.90;;;10.00;99.90;;;;;;5072344;28;20586;-68
2022/05/30 02:45:07;;;;;;;1999.90;999.90;;;10.00;99.90;;;;;;5070168;28;20465;-68
2022/05/30 02:47:34;;;;;;;1999.90;999.90;;;10.00;99.90;;;;;;5072623;28;20483;-69
2022/05/30 02:50:01;;;;;;;1999.90;999.90;;;10.00;99.90;;;;;;5071974;28;20457;-67
2022/05/30 02:52:27;;;;;;;1999.90;999.90;;;9.80;99.90;;;;;;5070337;28;20540;-67
2022/05/30 02:54:55;;;;;;;1999.90;999.90;;;9.90;99.90;;;;;;5070921;28;20514;-69
2022/05/30 02:57:22;;;;;;;1999.90;999.90;;;10.00;99.90;;;;;;5069471;28;20462;-68
2022/05/30 02:59:48;;;;;;;1999.90;999.90;;;10.00;99.90;;;;;;5071786;28;20514;-68
2022/05/30 03:02:15;;;;;;;1999.90;999.90;;;10.00;99.90;;;;;;5070262;28;20574;-69
2022/05/30 03:04:42;;;;;;;1999.90;999.90;;;10.10;99.90;;;;;;5073026;28;20481;-70
2022/05/30 03:07:08;;;;;;;1999.90;999.90;;;10.10;99.90;;;;;;5071910;28;20458;-69
2022/05/30 03:09:35;;;;;;;1999.90;999.90;;;10.10;99.90;;;;;;5069597;28;20474;-73
2022/05/30 03:12:03;;;;;;;1999.90;999.90;;;10.10;99.90;;;;;;5072469;28;20882;-69
2022/05/30 03:14:30;;;;;;;1999.90;999.90;;;10.20;99.90;;;;;;5070912;28;20461;-67
2022/05/30 03:16:57;;;;;;;1999.90;999.90;;;10.00;99.90;;;;;;5071838;28;20457;-66
2022/05/30 03:19:23;;;;;;;1999.90;999.90;;;9.90;99.90;;;;;;5071173;28;20472;-68
2022/05/30 03:21:50;;;;;;;1999.90;999.90;;;10.00;99.90;;;;;;5070426;28;21287;-69
2022/05/30 03:24:17;;;;;;;1999.90;999.90;;;10.00;99.90;;;;;;5067526;28;20552;-67
2022/05/30 03:26:43;;;;;;;1999.90;999.90;;;10.10;99.90;;;;;;5070382;28;20457;-69
2022/05/30 03:29:11;;;;;;;1999.90;999.90;;;10.20;99.90;;;;;;5070813;28;20558;-67
2022/05/30 03:31:38;;;;;;;1999.90;999.90;;;10.20;99.90;;;;;;5069549;28;20526;-67
2022/05/30 03:34:05;;;;;;;1999.90;999.90;;;10.20;99.90;;;;;;5070241;28;20461;-66
2022/05/30 03:36:33;;;;;;;1999.90;999.90;;;10.20;99.90;;;;;;5071765;28;20457;-67
2022/05/30 03:38:59;;;;;;;1999.90;999.90;;;10.30;99.90;;;;;;5071382;28;20469;-68
2022/05/30 03:41:26;;;;;;;1999.90;999.90;;;10.20;99.90;;;;;;5072074;28;20461;-67
2022/05/30 03:43:59;;;;;;;1999.90;999.90;;;10.20;99.90;;;;;;5071810;28;20489;-70
2022/05/30 03:46:28;;;;;;;1999.90;999.90;;;10.20;99.90;;;;;;5071160;28;20906;-68
2022/05/30 03:48:54;;;;;;;1999.90;999.90;;;10.20;99.90;;;;;;5069897;28;20452;-72
2022/05/30 03:51:21;;;;;;;1999.90;999.90;;;10.30;99.90;;;;;;5069235;28;20876;-68
2022/05/30 03:53:48;;;;;;;1999.90;999.90;;;10.30;99.90;;;;;;5069758;28;20976;-69
2022/05/30 03:56:14;;;;;;;1999.90;999.90;;;10.40;99.90;;;;;;5068401;28;20464;-67
2022/05/30 03:58:41;;;;;;;1999.90;999.90;;;10.30;99.90;;;;;;5072096;28;20488;-75
2022/05/30 04:01:09;;;;;;;1999.90;999.90;;;10.40;99.90;;;;;;5070556;28;20457;-66
2022/05/30 04:03:37;;;;;;;1999.90;999.90;;;10.20;99.90;;;;;;5068993;28;20534;-65
2022/05/30 04:06:04;;;;;;;1999.90;999.90;;;10.20;99.90;;;;;;5070225;28;20461;-65
2022/05/30 04:08:31;;;;;;;1999.90;999.90;;;10.30;99.90;;;;;;5069760;28;21049;-67
2022/05/30 04:10:58;;;;;;;1999.90;999.90;;;10.40;99.90;;;;;;5070712;28;21083;-69
2022/05/30 04:13:25;;;;;;;1999.90;999.90;;;10.20;99.90;;;;;;5070207;28;20867;-68
2022/05/30 04:15:51;;;;;;;1999.90;999.90;;;10.10;99.90;;;;;;5069838;28;20457;-68
2022/05/30 04:18:18;;;;;;;1999.90;999.90;;;10.10;99.90;;;;;;5068934;28;20527;-68
2022/05/30 04:20:47;;;;;;;1999.90;999.90;;;10.20;99.90;;;;;;5071006;28;20878;-69
2022/05/30 04:23:13;;;;;;;1999.90;999.90;;;10.20;99.90;;;;;;5069543;28;20481;-67
2022/05/30 04:25:40;;;;;;;1999.90;999.90;;;10.20;99.90;;;;;;5070496;28;20496;-68
2022/05/30 04:28:07;;;;;;;1999.90;999.90;;;10.30;99.90;;;;;;5069221;28;20500;-68
2022/05/30 04:30:34;;;;;;;1999.90;999.90;;;10.30;99.90;;;;;;5070584;28;20469;-68
2022/05/30 04:33:00;;;;;;;1999.90;999.90;;;10.30;99.90;;;;;;5070318;28;20515;-68
2022/05/30 04:35:27;;;;;;;1999.90;999.90;;;10.30;99.90;;;;;;5068543;28;20465;-69
2022/05/30 04:37:55;;;;;;;1999.90;999.90;;;10.30;99.90;;;;;;5072492;28;20469;-68
2022/05/30 04:40:22;;;;;;;1999.90;999.90;;;10.30;99.90;;;;;;5069679;28;20519;-65
2022/05/30 04:42:48;;;;;;;1999.90;999.90;;;10.30;99.90;;;;;;5077063;22;20573;-65
2022/05/30 04:45:16;;;;;;;1999.90;999.90;;;10.30;99.90;;;;;;5029010;28;20478;-64
2022/05/30 04:47:43;;;;;;;1999.90;999.90;;;10.30;99.90;;;;;;5028058;28;20455;-68
2022/05/30 04:50:14;;;;;;;1999.90;999.90;;;10.20;99.90;;;;;;5027860;28;20460;-64
2022/05/30 04:52:40;;;;;;;1999.90;999.90;;;10.20;99.90;;;;;;5029876;28;20479;-66
2022/05/30 04:55:10;;;;;;;1999.90;999.90;;;10.20;99.90;;;;;;5028164;28;20460;-65
2022/05/30 04:57:41;;;;;;;1999.90;999.90;;;10.30;99.90;;;;;;5028313;28;20546;-64
2022/05/30 05:00:09;;;;;;;1999.90;999.90;;;10.30;99.90;;;;;;5027157;28;20561;-62
2022/05/30 05:02:36;;;;;;;1999.90;999.90;;;10.30;99.90;;;;;;5026311;28;20536;-65
2022/05/30 05:05:03;;;;;;;1999.90;999.90;;;10.30;99.90;;;;;;5026250;28;21011;-63
2022/05/30 05:07:36;;;;;;;1999.90;999.90;;;10.30;99.90;;;;;;5027226;28;20468;-65
2022/05/30 05:10:06;;;;;;;1999.90;999.90;;;10.30;99.90;;;;;;5027738;28;21017;-64
2022/05/30 05:12:34;;;;;;;1999.90;999.90;;;10.30;99.90;;;;;;5026485;28;20483;-65
2022/05/30 05:15:00;;;;;;;1999.90;999.90;;;10.30;99.90;;;;;;5028144;28;20452;-65
2022/05/30 05:17:27;;;;;;;1999.90;999.90;;;10.30;99.90;;;;;;5026915;28;20467;-65
2022/05/30 05:19:53;;;;;;;1999.90;999.90;;;10.30;99.90;;;;;;5027323;28;20959;-65
2022/05/30 05:22:20;;;;;;;1999.90;999.90;;;10.40;99.90;;;;;;5026150;28;20455;-63
2022/05/30 05:24:47;;;;;;;1999.90;999.90;;;10.40;99.90;;;;;;5026903;28;20475;-65
2022/05/30 05:27:16;;;;;;;1999.90;999.90;;;10.40;99.90;;;;;;5025665;28;20463;-62
2022/05/30 05:29:44;;;;;;;1999.90;999.90;;;10.50;99.90;;;;;;5026530;28;20518;-67
2022/05/30 05:32:12;;;;;;;1999.90;999.90;;;10.50;99.90;;;;;;5028289;28;20464;-68
2022/05/30 05:34:38;;;;;;;1999.90;999.90;;;10.70;99.90;;;;;;5027842;28;20456;-66
2022/05/30 05:37:05;;;;;;;1999.90;999.90;;;10.80;99.90;;;;;;5025369;28;20471;-65
2022/05/30 05:39:32;;;;;;;1999.90;999.90;;;10.80;99.90;;;;;;5026193;28;20855;-66
2022/05/30 05:41:58;;;;;;;1999.90;999.90;;;10.80;99.90;;;;;;5024894;28;20467;-66
2022/05/30 05:44:25;;;;;;;1999.90;999.90;;;10.80;99.90;;;;;;5024252;28;20905;-65
2022/05/30 05:46:57;;;;;;;1999.90;999.90;;;10.70;99.90;;;;;;5026377;28;20464;-66
2022/05/30 05:49:23;;;;;;;1999.90;999.90;;;10.70;99.90;;;;;;5024982;28;20553;-65
2022/05/30 05:51:54;;;;;;;1999.90;999.90;;;10.60;99.90;;;;;;5026603;28;20515;-67
2022/05/30 05:54:22;;;;;;;1999.90;999.90;;;10.60;99.90;;;;;;5025280;28;20487;-66
2022/05/30 05:56:49;;;;;;;1999.90;999.90;;;10.70;99.90;;;;;;5026549;28;20475;-68
2022/05/30 05:59:16;;;;;;;1999.90;999.90;;;10.70;99.90;;;;;;5024940;28;21017;-66
2022/05/30 06:01:43;;;;;;;1999.90;999.90;;;10.80;99.90;;;;;;5026022;28;20983;-66
2022/05/30 06:04:12;;;;;;;1999.90;999.90;;;10.90;99.90;;;;;;5025159;28;20486;-66
2022/05/30 06:06:38;;;;;;;1999.90;999.90;;;10.90;99.90;;;;;;5027015;28;20517;-66
2022/05/30 06:09:06;;;;;;;1999.90;999.90;;;10.90;99.90;;;;;;5026928;28;20454;-65
2022/05/30 06:11:33;;;;;;;1999.90;999.90;;;11.10;99.90;;;;;;5028127;28;20471;-66
2022/05/30 06:14:00;;;;;;;1999.90;999.90;;;11.20;99.90;;;;;;5034419;28;20477;-67
2022/05/30 06:16:29;;;;;;;1999.90;999.90;;;11.20;99.90;;;;;;5033337;28;20468;-66
2022/05/30 06:18:58;;;;;;;1999.90;999.90;;;11.30;99.90;;;;;;5035478;28;20463;-65
2022/05/30 06:21:28;;;;;;;1999.90;999.90;;;11.40;99.90;;;;;;5033975;28;20495;-66
2022/05/30 06:23:55;;;;;;;1999.90;999.90;;;11.40;99.90;;;;;;5032113;28;20479;-64
2022/05/30 06:26:23;;;;;;;1999.90;999.90;;;11.50;99.90;;;;;;5032854;28;21028;-65
2022/05/30 06:28:51;;;;;;;1999.90;999.90;;;11.60;99.90;;;;;;5033221;28;20899;-66
2022/05/30 06:31:19;;;;;;;1999.90;999.90;;;11.70;99.90;;;;;;5032175;28;20471;-66
2022/05/30 06:33:47;;;;;;;1999.90;999.90;;;11.60;99.90;;;;;;5031634;28;20558;-65
2022/05/30 06:36:16;;;;;;;1999.90;999.90;;;11.60;99.90;;;;;;5030633;28;20470;-66
2022/05/30 06:38:46;;;;;;;1999.90;999.90;;;11.70;99.90;;;;;;5031546;28;20471;-66
2022/05/30 06:41:14;;;;;;;1999.90;999.90;;;11.50;99.90;;;;;;5032553;28;20525;-67
2022/05/30 06:43:41;;;;;;;1999.90;999.90;;;11.50;99.90;;;;;;5031093;28;20570;-66
2022/05/30 06:46:08;;;;;;;1999.90;999.90;;;11.40;99.90;;;;;;5032887;28;20516;-66
2022/05/30 06:48:35;;;;;;;1999.90;999.90;;;11.50;99.90;;;;;;5030644;28;20462;-65
2022/05/30 06:51:04;;;;;;;1999.90;999.90;;;11.60;99.90;;;;;;5033067;28;20532;-66
2022/05/30 06:53:30;;;;;;;1999.90;999.90;;;11.70;99.90;;;;;;5030568;28;20475;-66
2022/05/30 06:55:59;;;;;;;1999.90;999.90;;;11.60;99.90;;;;;;5031520;28;20463;-65
2022/05/30 06:58:25;;;;;;;1999.90;999.90;;;11.40;99.90;;;;;;5034996;28;20459;-67
2022/05/30 07:00:52;;;;;;;1999.90;999.90;;;11.30;99.90;;;;;;5035697;28;20512;-66
2022/05/30 07:03:19;;;;;;;1999.90;999.90;;;11.40;99.90;;;;;;5035414;28;20570;-66
2022/05/30 07:05:46;;;;;;;1999.90;999.90;;;11.40;99.90;;;;;;5034535;28;20490;-66
2022/05/30 07:08:13;;;;;;;1999.90;999.90;;;11.50;99.90;;;;;;5036170;28;20525;-66
2022/05/30 07:10:42;;;;;;;1999.90;999.90;;;11.50;99.90;;;;;;5035362;28;20541;-66
2022/05/30 07:13:10;;;;;;;1999.90;999.90;;;11.50;99.90;;;;;;5036134;28;21138;-64
2022/05/30 07:15:36;;;;;;;1999.90;999.90;;;11.60;99.90;;;;;;5036456;28;20513;-65
2022/05/30 07:18:09;;;;;;;1999.90;999.90;;;11.70;99.90;;;;;;5035689;28;20463;-66
2022/05/30 07:20:36;;;;;;;1999.90;999.90;;;11.80;99.90;;;;;;5034779;28;20532;-67
2022/05/30 07:23:03;;;;;;;1999.90;999.90;;;11.90;99.90;;;;;;5034288;28;20528;-66
2022/05/30 07:25:29;;;;;;;1999.90;999.90;;;12.10;99.90;;;;;;5031459;28;20552;-66
2022/05/30 07:27:56;;;;;;;1999.90;999.90;;;12.10;99.90;;;;;;5032019;28;20529;-66
2022/05/30 07:30:24;;;;;;;1999.90;999.90;;;12.10;99.90;;;;;;5028556;28;20470;-67
2022/05/30 07:32:51;;;;;;;1999.90;999.90;;;12.10;99.90;;;;;;5033851;28;20479;-65
2022/05/30 07:35:17;;;;;;;1999.90;999.90;;;12.40;99.90;;;;;;5032286;28;21032;-65
2022/05/30 07:37:44;;;;;;;1999.90;999.90;;;12.70;99.90;;;;;;5034499;28;20466;-65
2022/05/30 07:40:12;;;;;;;1999.90;999.90;;;12.80;99.90;;;;;;5034797;28;20447;-66
2022/05/30 07:42:39;;;;;;;1999.90;999.90;;;12.80;99.90;;;;;;5034218;28;20529;-66
2022/05/30 07:45:06;;;;;;;1999.90;999.90;;;12.60;99.90;;;;;;5031553;28;20479;-67
2022/05/30 07:47:34;;;;;;;1999.90;999.90;;;12.70;99.90;;;;;;5034184;28;20447;-66
2022/05/30 07:50:02;;;;;;;1999.90;999.90;;;12.60;99.90;;;;;;5033479;28;20979;-66
2022/05/30 07:52:29;;;;;;;1999.90;999.90;;;12.40;99.90;;;;;;5033007;28;20514;-65
2022/05/30 07:54:56;;;;;;;1999.90;999.90;;;12.60;99.90;;;;;;5034428;28;20620;-66
2022/05/30 07:57:50;;;;;;;1999.90;999.90;;;12.60;99.90;;;;;;5034063;28;20449;-64
2022/05/30 08:00:12;;;;;;;1999.90;999.90;;;12.50;99.90;;;;;;5033859;28;20956;-64
2022/05/30 08:02:40;;;;;;;1999.90;999.90;;;12.50;99.90;;;;;;5032781;28;20471;-65
2022/05/30 08:05:08;;;;;;;1999.90;999.90;;;12.70;99.90;;;;;;5034210;28;20483;-65
2022/05/30 08:07:35;;;;;;;1999.90;999.90;;;12.70;99.90;;;;;;5034264;28;20451;-65
2022/05/30 08:10:02;;;;;;;1999.90;999.90;;;12.80;99.90;;;;;;5033971;28;20458;-64
2022/05/30 08:12:28;;;;;;;1999.90;999.90;;;12.90;99.90;;;;;;5030601;28;20464;-65
2022/05/30 08:14:55;;;;;;;1999.90;999.90;;;13.10;99.90;;;;;;5030335;28;20529;-65
2022/05/30 08:17:22;;;;;;;1999.90;999.90;;;13.20;99.90;;;;;;5030482;28;20491;-65
2022/05/30 08:19:50;;;;;;;1999.90;999.90;;;13.40;99.90;;;;;;5033637;28;20451;-64
2022/05/30 08:22:18;;;;;;;1999.90;999.90;;;13.50;99.90;;;;;;5031019;28;20459;-65
2022/05/30 08:24:47;;;;;;;1999.90;999.90;;;13.30;99.90;;;;;;5032513;28;20486;-65
2022/05/30 08:27:15;;;;;;;1999.90;999.90;;;13.30;99.90;;;;;;5029838;28;20443;-65
2022/05/30 08:29:43;;;;;;;1999.90;999.90;;;13.50;99.90;;;;;;5030537;28;20525;-63
2022/05/30 08:32:11;;;;;;;1999.90;999.90;;;13.50;99.90;;;;;;5028792;28;20470;-64
2022/05/30 08:34:39;;;;;;;1999.90;999.90;;;13.70;99.90;;;;;;5029533;28;20467;-65
2022/05/30 08:37:08;;;;;;;1999.90;999.90;;;13.60;99.90;;;;;;5031186;28;20462;-66
2022/05/30 08:42:25;;;;;;;1999.90;999.90;;;13.60;99.90;;;;;;5032967;28;20422;-62
2022/05/30 08:44:52;;;;;;;1999.90;999.90;;;13.70;99.90;;;;;;5032491;28;20482;-65
2022/05/30 08:47:29;;;;;;;1999.90;999.90;;;14.00;99.90;;;;;;5033009;28;20455;-65
2022/05/30 08:50:04;;;;;;;1999.90;999.90;;;13.80;99.90;;;;;;5033444;28;20481;-65
2022/05/30 08:52:50;;;;;;;1999.90;999.90;;;13.90;99.90;;;;;;5033203;28;20466;-65
2022/05/30 08:55:28;;;;;;;1999.90;999.90;;;14.00;99.90;;;;;;5032490;28;20451;-64
2022/05/30 08:58:01;;;;;;;1999.90;999.90;;;14.00;99.90;;;;;;5013076;28;20448;-65
2022/05/30 09:00:31;;;;;;;1999.90;999.90;;;14.20;99.90;;;;;;5012990;28;20510;-65
2022/05/30 09:03:06;;;;;;;1999.90;999.90;;;14.30;99.90;;;;;;5012802;28;20468;-64
2022/05/30 09:05:39;;;;;;;1999.90;999.90;;;14.40;99.90;;;;;;5029288;28;20484;-65
2022/05/30 09:08:11;;;;;;;1999.90;999.90;;;14.70;99.90;;;;;;5032625;28;20431;-64
2022/05/30 09:10:42;;;;;;;1999.90;999.90;;;14.80;99.90;;;;;;5032362;28;21002;-65
2022/05/30 09:13:17;;;;;;;1999.90;999.90;;;15.10;99.90;;;;;;5032261;28;20521;-65
2022/05/30 09:15:50;;;;;;;1999.90;999.90;;;14.90;99.90;;;;;;5031321;28;20451;-64
2022/05/30 09:18:21;;;;;;;1999.90;999.90;;;14.80;99.90;;;;;;5029350;28;20476;-65
2022/05/30 09:20:48;;;;;;;1999.90;999.90;;;14.70;99.90;;;;;;5031616;28;20463;-67
2022/05/30 09:23:21;;;;;;;1999.90;999.90;;;14.80;99.90;;;;;;5032100;28;20474;-65
2022/05/30 09:26:00;;;;;;;1999.90;999.90;;;14.90;99.90;;;;;;5035309;28;20486;-65
2022/05/30 09:28:29;;;;;;;1999.90;999.90;;;15.10;99.90;;;;;;5025670;28;20979;-66
2022/05/30 09:31:07;;;;;;;1999.90;999.90;;;15.80;99.90;;;;;;5029844;28;20877;-66
2022/05/30 09:33:36;;;;;;;1999.90;999.90;;;15.60;99.90;;;;;;5030102;28;20540;-66
2022/05/30 09:36:15;;;;;;;1999.90;999.90;;;15.80;99.60;;;;;;5031967;28;20955;-66
2022/05/30 09:38:47;;;;;;;1999.90;999.90;;;15.70;99.90;;;;;;5032816;28;20454;-67
2022/05/30 09:41:19;;;;;;;1999.90;999.90;;;15.60;99.80;;;;;;5032054;28;20486;-67
2022/05/30 09:43:49;;;;;;;1999.90;999.90;;;15.70;99.90;;;;;;5031455;28;20475;-68
2022/05/30 09:46:20;;;;;;;1999.90;999.90;;;15.70;99.90;;;;;;5031009;28;20476;-66
2022/05/30 09:49:01;;;;;;;1999.90;999.90;;;15.30;99.90;;;;;;5032286;28;20447;-63
2022/05/30 09:51:33;;;;;;;1999.90;999.90;;;14.80;99.90;;;;;;5032723;28;20442;-66
2022/05/30 09:54:01;;;;;;;1999.90;999.90;;;14.40;99.90;;;;;;5031278;28;20471;-66
2022/05/30 09:56:30;;;;;;;1999.90;999.90;;;14.50;99.90;;;;;;5032401;28;20493;-66
2022/05/30 09:59:02;;;;;;;1999.90;999.90;;;14.50;99.90;;;;;;5031879;28;20455;-67
2022/05/30 10:01:32;;;;;;;1999.90;999.90;;;14.40;99.90;;;;;;5017147;28;20517;-66
2022/05/30 10:04:15;;;;;;;1999.90;999.90;;;14.50;99.90;;;;;;5029125;28;20479;-66
2022/05/30 10:06:42;;;;;;;1999.90;999.90;;;14.70;99.90;;;;;;5032210;28;20471;-64
2022/05/30 10:09:13;;;;;;;1999.90;999.90;;;14.70;99.90;;;;;;5031883;28;20455;-65
2022/05/30 10:11:42;;;;;;;1999.90;999.90;;;14.70;99.90;;;;;;5029527;28;20475;-64
2022/05/30 10:14:19;;;;;;;1999.90;999.90;;;14.80;99.90;;;;;;5029312;28;20896;-64
2022/05/30 10:16:46;;;;;;;1999.90;999.90;;;14.80;99.90;;;;;;5024502;28;20460;-65
2022/05/30 10:19:25;;;;;;;1999.90;999.90;;;15.00;99.90;;;;;;5023784;28;20850;-64
2022/05/30 10:30:42;;;;;;;1999.90;999.90;;;14.70;99.90;;;;;;5028731;28;20896;-65
2022/05/30 10:33:28;;;;;;;1999.90;999.90;;;14.60;99.90;;;;;;5027799;28;20597;-65
2022/05/30 10:36:03;;;;;;;1999.90;999.90;;;14.40;99.90;;;;;;5027943;28;20455;-69
2022/05/30 10:38:42;;;;;;;1999.90;999.90;;;14.50;99.90;;;;;;5028030;28;20489;-63
2022/05/30 10:41:14;;;;;;;1999.90;999.90;;;13.90;99.90;;;;;;5031243;28;20469;-65
2022/05/30 10:43:48;;;;;;;1999.90;999.90;;;13.80;99.90;;;;;;5051765;22;20498;-71
2022/05/30 10:46:22;;;;;;;1999.90;999.90;;;13.60;99.90;;;;;;5048840;28;20481;-70
2022/05/30 10:48:57;;;;;;;1999.90;999.90;;;13.80;99.90;;;;;;5045315;28;20462;-71
2022/05/30 10:51:28;;;;;;;1999.90;999.90;;;14.10;99.90;;;;;;5046181;28;20458;-71
2022/05/30 10:54:01;;;;;;;1999.90;999.90;;;14.10;99.90;;;;;;5045602;28;20501;-70
2022/05/30 10:56:31;;;;;;;1999.90;999.90;;;14.30;99.90;;;;;;5048375;28;20459;-71
2022/05/30 10:59:06;;;;;;;1999.90;999.90;;;14.60;99.90;;;;;;5051411;28;20529;-70
2022/05/30 11:01:40;;;;;;;1999.90;999.90;;;14.60;99.90;;;;;;5049249;28;20954;-69
2022/05/30 11:04:30;;;;;;;1999.90;999.90;;;14.50;99.90;;;;;;5048144;28;21057;-68
2022/05/30 11:07:04;;;;;;;1999.90;999.90;;;14.40;99.90;;;;;;5050592;28;20477;-70
2022/05/30 11:09:38;;;;;;;1999.90;999.90;;;14.20;99.90;;;;;;5049955;28;20453;-71
2022/05/30 11:12:15;;;;;;;1999.90;999.90;;;14.50;99.90;;;;;;5049416;28;20462;-70
2022/05/30 11:14:46;;;;;;;1999.90;999.90;;;15.00;99.90;;;;;;5050466;28;20473;-70
2022/05/30 11:17:22;;;;;;;1999.90;999.90;;;15.30;99.90;;;;;;5051010;28;20950;-71
2022/05/30 11:20:02;;;;;;;1999.90;999.90;;;15.40;99.90;;;;;;5054869;28;20442;-71
2022/05/30 11:22:36;;;;;;;1999.90;999.90;;;15.30;99.90;;;;;;5054525;28;20434;-71
2022/05/30 11:25:04;;;;;;;1999.90;999.90;;;15.40;99.90;;;;;;5054366;28;20520;-70
2022/05/30 11:27:37;;;;;;;1999.90;999.90;;;15.70;99.90;;;;;;5054175;28;21009;-70
2022/05/30 11:30:40;;;;;;;1999.90;999.90;;;15.90;99.90;;;;;;5051809;28;20485;-71
2022/05/30 11:33:35;;;;;;;1999.90;999.90;;;16.50;99.90;;;;;;5050910;28;20984;-71
2022/05/30 11:36:17;;;;;;;1999.90;999.90;;;16.30;99.90;;;;;;5052226;28;20434;-70
2022/05/30 11:38:57;;;;;;;1999.90;999.90;;;16.00;99.90;;;;;;5050831;28;20950;-71
2022/05/30 11:41:39;;;;;;;1999.90;999.90;;;15.90;99.90;;;;;;5050706;28;20480;-70
2022/05/30 11:44:37;;;;;;;1999.90;999.90;;;15.50;99.90;;;;;;5050690;28;20532;-71
2022/05/30 11:47:18;;;;;;;1999.90;999.90;;;15.70;99.90;;;;;;5047982;28;20989;-71
2022/05/30 11:49:54;;;;;;;1999.90;999.90;;;16.30;99.70;;;;;;5051596;28;20455;-70
2022/05/30 11:52:33;;;;;;;1999.90;999.90;;;16.80;99.90;;;;;;5050598;28;21004;-70
2022/05/30 11:55:14;;;;;;;1999.90;999.90;;;16.60;97.30;;;;;;5048170;28;20903;-69
2022/05/30 11:57:46;;;;;;;1999.90;999.90;;;17.00;97.40;;;;;;5047629;28;20516;-70
2022/05/30 12:00:22;;;;;;;1999.90;999.90;;;16.90;97.00;;;;;;5048065;28;20462;-71
2022/05/30 12:03:19;;;;;;;1999.90;999.90;;;16.70;97.50;;;;;;5046985;28;20568;-69
2022/05/30 12:06:21;;;;;;;1999.90;999.90;;;16.20;98.70;;;;;;5020261;28;20486;-70
2022/05/30 12:09:22;;;;;;;1999.90;999.90;;;16.40;99.30;;;;;;5005419;28;20438;-70
2022/05/30 12:12:07;;;;;;;1999.90;999.90;;;16.50;99.70;;;;;;5040874;28;20590;-70
2022/05/30 12:14:58;;;;;;;1999.90;999.90;;;16.10;98.70;;;;;;5048535;28;21009;-69
2022/05/30 12:23:47;;;;;;;1999.90;999.90;;;15.60;99.30;;;;;;5050038;28;20951;-70
2022/05/30 12:23:49;;;;;;;1999.90;999.90;;;15.30;99.90;;;;;;5047510;28;20551;-70
2022/05/30 12:26:17;;;;;;;1999.90;999.90;;;15.60;99.90;;;;;;5047612;28;20488;-71
2022/05/30 12:28:55;;;;;;;1999.90;999.90;;;15.60;99.30;;;;;;5046576;28;20528;-70
2022/05/30 12:31:36;;;;;;;1999.90;999.90;;;15.90;99.00;;;;;;5049506;28;20842;-70
2022/05/30 12:34:06;;;;;;;1999.90;999.90;;;16.10;97.20;;;;;;5048333;28;20918;-70